Latest Weather Observations for Coonabarabran Airport

IDN60801

Issued at 10:32 am EST Tuesday 28 April 2015 (issued every 30 minutes, with the page automatically refreshed every 10 minutes)

About weather observations | Map of weather stations | Latest weather observations for NSW | Other Formats
Station Details ID: 064017 Name: COONABARABRAN AIRPORT AWS Lat: -31.33 Lon: 149.27 Height: 645.0 m
Data from the previous 72 hours. | See also: Recent months for locations in New South Wales
Date/Time
EST
Temp
°C
App
Temp
°C
Dew
Point
Rel
Hum
%
Delta-T
°C
Wind Press
QNH
hPa
Press
MSL
hPa
Rain
since 9 am
mm
Dir
 
Spd
km/h
Gust
km/h
Spd
kts
Gust
kts
28/10:30am 13.9 10.0 5.3 56 4.2 ENE 15 22 8 12 1025.1 1023.1 0.0
28/10:00am 13.3 9.9 5.9 61 3.6 ESE 13 17 7 9 1025.2 1023.2 0.0
28/09:30am 12.5 8.8 6.1 65 3.1 E 15 20 8 11 1025.3 1023.3 0.0
28/09:00am 11.7 8.5 5.3 65 3.0 ESE 11 15 6 8 1025.1 1023.1 0.0
28/08:30am 10.7 8.4 5.5 70 2.5 SE 7 15 4 8 1024.9 1022.9 0.0
28/08:00am 8.7 5.8 4.9 77 1.7 SSW 9 17 5 9 1024.6 1022.6 0.0
28/07:30am 7.9 5.0 4.5 79 1.5 SSW 9 13 5 7 1024.3 1022.3 0.0
28/07:00am 6.6 3.2 3.9 83 1.2 SSW 11 17 6 9 1024.0 1022.1 0.0
28/06:30am 6.1 2.6 3.6 84 1.1 SSW 11 13 6 7 1023.7 1021.7 0.0
28/06:00am 6.2 2.4 3.7 84 1.1 SSW 13 15 7 8 1023.3 1021.3 0.0
28/05:30am 6.2 2.3 3.5 83 1.2 SSW 13 15 7 8 1023.0 1021.0 0.0
28/05:00am 6.3 2.4 3.5 82 1.2 SSW 13 17 7 9 1022.7 1020.7 0.0
28/04:30am 6.5 3.0 3.7 82 1.2 SSW 11 13 6 7 1022.3 1020.3 0.0
28/04:00am 6.6 2.7 3.6 81 1.3 SSW 13 15 7 8 1022.3 1020.3 0.0
28/03:30am 6.7 3.2 3.5 80 1.4 SSW 11 13 6 7 1022.2 1020.2 0.0
28/03:00am 7.0 3.2 3.8 80 1.4 SSW 13 15 7 8 1022.2 1020.2 0.0
28/02:30am 6.8 3.0 3.8 81 1.3 SW 13 15 7 8 1022.2 1020.2 0.0
28/02:00am 6.9 3.5 3.9 81 1.3 SSW 11 15 6 8 1022.3 1020.3 0.0
28/01:30am 7.2 3.4 3.8 79 1.5 SSW 13 15 7 8 1022.6 1020.5 0.0
28/01:00am 7.5 3.7 4.1 79 1.5 SSW 13 17 7 9 1022.6 1020.5 0.0
28/12:30am 7.8 4.1 4.2 78 1.6 SSW 13 20 7 11 1022.6 1020.5 0.0
28/12:00am 8.1 4.3 4.1 76 1.8 SSW 13 17 7 9 1022.8 1020.8 0.0
 
Date/Time
EST
Temp
°C
App
Temp
°C
Dew
Point
Rel
Hum
%
Delta-T
°C
Wind Press
QNH
hPa
Press
MSL
hPa
Rain
since 9 am
mm
Dir
 
Spd
km/h
Gust
km/h
Spd
kts
Gust
kts
27/11:30pm 8.0 3.9 4.2 77 1.7 SSW 15 19 8 10 1022.9 1020.9 0.0
27/11:00pm 7.4 2.9 4.2 80 1.4 SSW 17 20 9 11 1022.9 1020.9 0.0
27/10:30pm 7.5 3.4 4.1 79 1.5 S 15 20 8 11 1023.2 1021.2 0.0
27/10:00pm 7.8 3.6 4.0 77 1.7 S 15 20 8 11 1023.1 1021.1 0.0
27/09:30pm 8.3 4.2 4.1 75 1.9 SSW 15 22 8 12 1023.0 1021.0 0.0
27/09:00pm 8.6 4.9 4.4 75 1.9 SSW 13 17 7 9 1022.9 1020.9 0.0
27/08:30pm 8.9 5.6 4.7 75 1.9 SSW 11 17 6 9 1022.7 1020.7 0.0
27/08:00pm 9.4 5.9 5.4 76 1.9 SSW 13 19 7 10 1022.2 1020.2 0.0
27/07:30pm 9.4 6.7 5.6 77 1.8 SSW 9 15 5 8 1022.1 1020.1 0.0
27/07:00pm 10.3 6.3 5.1 70 2.4 SW 15 20 8 11 1021.8 1019.8 0.0
27/06:30pm 10.7 6.0 5.0 68 2.7 SW 19 24 10 13 1021.2 1019.1 0.0
27/06:00pm 11.1 7.1 5.0 66 2.9 WSW 15 20 8 11 1021.1 1019.0 0.0
27/05:30pm 11.7 8.1 4.9 63 3.2 WSW 13 17 7 9 1020.8 1018.7 0.0
27/05:00pm 12.9 8.6 5.1 59 3.7 SW 17 24 9 13 1020.5 1018.5 0.0
27/04:30pm 13.7 9.3 4.6 54 4.4 SW 17 20 9 11 1020.3 1018.3 0.0
27/04:00pm 14.1 10.4 4.4 52 4.6 SW 13 22 7 12 1020.2 1018.2 0.0
27/03:30pm 14.5 10.1 4.5 51 4.8 SSW 17 26 9 14 1020.0 1018.0 0.0
27/03:00pm 14.5 9.9 3.9 49 5.0 SW 17 26 9 14 1019.9 1017.8 0.0
27/02:30pm 14.2 9.5 3.4 48 5.1 SSW 17 26 9 14 1019.8 1017.7 0.0
27/02:00pm 14.5 10.4 4.5 51 4.8 SSW 15 26 8 14 1019.8 1017.7 0.0
27/01:30pm 14.1 9.3 4.4 52 4.6 SW 19 26 10 14 1019.8 1017.7 0.0
27/01:00pm 13.8 9.4 4.9 55 4.3 SSW 17 26 9 14 1020.0 1018.0 0.0
27/12:30pm 13.1 8.2 4.0 54 4.3 WSW 19 24 10 13 1020.4 1018.4 0.0
27/12:00pm 13.0 8.1 4.9 58 3.9 WSW 20 30 11 16 1020.8 1018.7 0.0
27/11:30am 12.2 7.3 3.9 57 3.9 SW 19 26 10 14 1021.2 1019.1 0.0
27/11:00am 11.8 7.4 4.5 61 3.4 SSW 17 26 9 14 1021.4 1019.4 0.0
27/10:30am 11.5 6.6 4.3 61 3.4 SSW 19 28 10 15 1021.6 1019.6 0.0
27/10:00am 10.5 4.9 3.3 61 3.3 SSW 22 32 12 17 1021.7 1019.7 0.0
27/09:30am 9.8 3.7 2.9 62 3.1 SSW 24 35 13 19 1021.6 1019.6 0.0
27/09:00am 9.7 3.8 3.9 67 2.6 SSW 24 35 13 19 1021.5 1019.5 0.0
27/08:30am 8.9 3.0 3.9 71 2.3 SSW 24 35 13 19 1021.1 1019.0 0.0
27/08:00am 8.3 2.5 4.3 76 1.8 SSW 24 32 13 17 1021.0 1018.9 0.0
27/07:30am 7.6 1.3 4.0 78 1.6 SSW 26 37 14 20 1020.4 1018.4 0.0
27/07:00am 7.0 1.1 4.0 81 1.3 SSW 24 33 13 18 1020.0 1018.0 0.0
27/06:30am 6.9 1.4 4.0 82 1.3 SSW 22 30 12 16 1019.9 1017.8 0.0
27/06:00am 6.7 1.7 4.5 86 1.0 SSW 20 28 11 15 1019.6 1017.5 0.0
27/05:30am 6.6 1.3 4.8 88 0.8 SSW 22 30 12 16 1019.5 1017.4 0.0
27/05:00am 6.9 1.2 5.1 88 0.8 SSW 24 30 13 16 1019.4 1017.3 0.0
27/04:30am 6.9 1.7 5.5 91 0.6 SSW 22 32 12 17 1019.0 1017.0 0.0
27/04:00am 7.1 2.0 6.0 93 0.5 SSW 22 32 12 17 1018.9 1016.9 0.0
27/03:30am 7.4 2.3 6.0 91 0.7 SSW 22 30 12 16 1018.8 1016.8 0.0
27/03:00am 7.8 2.8 6.3 90 0.7 SSW 22 32 12 17 1018.8 1016.8 0.0
27/02:30am 8.0 3.0 6.3 89 0.8 SSW 22 30 12 16 1018.7 1016.7 0.0
27/02:00am 8.3 2.9 6.4 88 0.9 SW 24 32 13 17 1018.8 1016.8 0.0
27/01:30am 8.5 3.5 6.5 87 1.0 SW 22 33 12 18 1018.8 1016.8 0.0
27/01:00am 8.8 4.2 6.6 86 1.1 SW 20 32 11 17 1018.7 1016.7 0.0
27/12:30am 9.1 4.8 6.9 86 1.1 SW 19 26 10 14 1018.8 1016.8 0.0
27/12:00am 9.5 4.6 7.1 85 1.2 SW 22 33 12 18 1019.0 1017.0 0.0
 
Date/Time
EST
Temp
°C
App
Temp
°C
Dew
Point
Rel
Hum
%
Delta-T
°C
Wind Press
QNH
hPa
Press
MSL
hPa
Rain
since 9 am
mm
Dir
 
Spd
km/h
Gust
km/h
Spd
kts
Gust
kts
26/11:30pm 9.8 5.4 7.4 85 1.2 SW 20 30 11 16 1019.3 1017.2 0.0
26/11:00pm 9.8 6.0 7.6 86 1.1 SW 17 26 9 14 1019.3 1017.2 0.0
26/10:30pm 10.0 6.3 7.8 86 1.1 SW 17 24 9 13 1019.4 1017.3 0.0
26/10:00pm 10.1 6.0 7.9 86 1.1 SW 19 24 10 13 1019.2 1017.1 0.0
26/09:30pm 10.4 6.2 8.2 86 1.1 SW 20 26 11 14 1019.3 1017.2 0.0
26/09:00pm 10.8 7.6 8.4 85 1.2 SSW 15 24 8 13 1019.4 1017.3 0.0
26/08:30pm 10.8 7.5 8.0 83 1.4 SSW 15 20 8 11 1019.5 1017.4 0.0
26/08:00pm 10.9 6.8 7.8 81 1.6 SW 19 28 10 15 1019.3 1017.2 0.0
26/07:30pm 10.8 6.2 8.0 83 1.4 SW 22 35 12 19 1018.9 1016.9 0.0
26/07:00pm 10.8 6.3 8.4 85 1.2 SW 22 33 12 18 1018.8 1016.8 0.0
26/06:30pm 10.8 7.4 9.1 89 0.9 SW 17 24 9 13 1018.6 1016.6 0.0
26/06:00pm 10.8 6.9 8.7 87 1.1 SW 19 28 10 15 1018.1 1016.0 0.0
26/05:30pm 10.8 6.7 8.7 87 1.1 SW 20 28 11 15 1017.6 1015.5 0.0
26/05:00pm 10.9 6.8 8.5 85 1.2 SW 20 30 11 16 1017.2 1015.2 0.0
26/04:30pm 10.9 6.8 8.5 85 1.2 SW 20 30 11 16 1016.9 1014.8 0.0
26/04:00pm 11.2 6.6 8.2 82 1.5 SW 22 28 12 15 1016.8 1014.7 0.0
26/03:30pm 10.8 6.8 8.4 85 1.2 SW 19 28 10 15 1016.7 1014.6 0.0
26/03:00pm 10.3 5.7 8.2 87 1.1 SW 22 30 12 16 1016.4 1014.3 0.0
26/02:30pm 10.4 5.5 8.3 87 1.1 SW 24 35 13 19 1016.1 1014.0 0.0
26/02:00pm 10.3 5.8 8.4 88 1.0 SW 22 32 12 17 1015.7 1013.6 0.0
26/01:30pm 9.8 4.8 7.9 88 0.9 WSW 24 33 13 18 1015.7 1013.6 0.0
26/01:00pm 10.7 5.6 7.8 82 1.5 WSW 24 35 13 19 1015.5 1013.4 0.0
26/12:30pm 10.8 5.3 7.7 81 1.6 W 26 39 14 21 1015.3 1013.2 0.0
26/12:00pm 10.6 5.5 7.7 82 1.4 SW 24 35 13 19 1015.4 1013.3 0.0
26/11:30am 10.8 6.0 7.5 80 1.6 WSW 22 35 12 19 1015.6 1013.5 0.0
26/11:00am 10.4 5.5 7.1 80 1.6 SW 22 33 12 18 1015.7 1013.6 0.0
26/10:30am 10.6 5.1 7.7 82 1.4 SW 26 41 14 22 1015.6 1013.5 0.0
26/10:00am 11.0 5.7 6.9 76 2.0 WSW 24 32 13 17 1015.0 1012.9 0.0
26/09:30am 10.0 5.2 7.4 84 1.3 WSW 22 33 12 18 1014.7 1012.6 0.0
26/09:00am 8.7 3.4 7.0 89 0.8 WSW 24 33 13 18 1014.7 1012.6 0.2
26/08:30am 8.5 2.0 6.6 88 0.9 SW 30 39 16 21 1014.5 1012.4 0.2
26/08:00am 8.3 3.5 7.4 94 0.4 SW 22 32 12 17 1014.2 1012.0 0.2
26/07:30am 7.9 3.1 7.3 96 0.3 SW 22 32 12 17 1013.4 1011.3 0.2
26/07:00am 7.7 3.0 7.6 99 0.0 SW 22 30 12 16 1013.0 1010.8 0.2
26/06:30am 7.3 2.9 7.3 100 0.0 SW 20 32 11 17 1012.6 1010.4 0.2
26/06:00am 7.3 2.1 7.3 100 0.0 SW 24 35 13 19 1012.4 1010.3 0.2
26/05:30am 7.5 3.1 7.4 99 0.0 WSW 20 28 11 15 1012.1 1010.0 0.2
26/05:00am 7.5 4.0 7.2 98 0.1 WSW 15 22 8 12 1011.7 1009.5 0.2
26/04:30am 7.4 3.6 7.4 100 0.0 WSW 17 20 9 11 1011.3 1009.1 0.2
26/04:00am 7.2 3.3 7.2 100 0.0 WSW 17 22 9 12 1011.1 1008.9 0.2
26/03:30am 7.3 2.8 7.0 98 0.1 WSW 20 30 11 16 1010.7 1008.6 0.2
26/03:00am 7.3 3.4 7.3 100 0.0 SW 17 20 9 11 1010.6 1008.5 0.2
26/02:30am 7.1 3.2 7.1 100 0.0 W 17 22 9 12 1010.5 1008.4 0.2
26/02:00am 7.3 3.8 7.3 100 0.0 WSW 15 20 8 11 1010.9 1008.7 0.2
26/01:30am 7.9 4.2 6.4 90 0.7 W 15 20 8 11 1010.9 1008.7 0.0
26/01:00am 8.1 5.1 6.1 87 0.9 WNW 11 22 6 12 1011.0 1008.8 0.0
26/12:30am 8.1 3.8 5.4 83 1.3 NW 17 20 9 11 1010.9 1008.7 0.0
26/12:00am 8.4 5.0 6.0 85 1.1 WNW 13 17 7 9 1011.0 1008.8 0.0
 
Date/Time
EST
Temp
°C
App
Temp
°C
Dew
Point
Rel
Hum
%
Delta-T
°C
Wind Press
QNH
hPa
Press
MSL
hPa
Rain
since 9 am
mm
Dir
 
Spd
km/h
Gust
km/h
Spd
kts
Gust
kts
25/11:30pm 8.2 3.8 6.5 89 0.8 WSW 19 26 10 14 1011.4 1009.2 0.0
25/11:00pm 8.5 4.0 6.1 85 1.1 SW 19 30 10 16 1011.4 1009.2 0.0
25/10:30pm 9.2 4.2 6.3 82 1.4 WSW 22 30 12 16 1012.0 1009.9 0.0
25/10:00pm 9.6 2.0 6.0 78 1.7 WSW 35 54 19 29 1011.5 1009.3 0.0
25/09:46pm 11.1 4.6 4.8 65 3.0 W 28 56 15 30 1011.2 1009.0 0.0
25/09:30pm 11.7 7.3 4.7 62 3.3 W 17 22 9 12 1010.9 1008.7 0.0
25/09:00pm 13.2 6.1 3.8 53 4.4 W 30 44 16 24 1010.4 1008.3 0.0
25/08:30pm 13.8 7.5 3.9 51 4.7 WNW 26 35 14 19 1010.3 1008.1 0.0
25/08:00pm 14.3 8.0 3.7 49 5.0 WNW 26 35 14 19 1010.0 1007.8 0.0
25/07:30pm 14.0 8.0 3.5 49 4.9 WNW 24 33 13 18 1009.9 1007.7 0.0
25/07:00pm 14.9 8.4 4.6 50 5.0 WNW 28 43 15 23 1009.4 1007.2 0.0
25/06:30pm 14.9 10.2 6.0 55 4.4 NW 20 32 11 17 1009.1 1007.0 0.0
25/06:00pm 14.8 10.4 6.6 58 4.1 WNW 19 20 10 11 1008.8 1006.6 0.0
25/05:30pm 15.6 10.6 6.6 55 4.5 WNW 22 30 12 16 1008.5 1006.3 0.0
25/05:00pm 17.1 11.7 6.3 49 5.5 NW 24 33 13 18 1008.1 1005.9 0.0
25/04:30pm 18.1 12.2 5.7 44 6.3 NW 26 39 14 21 1007.9 1005.7 0.0
25/04:00pm 18.8 12.2 6.0 43 6.6 NW 30 41 16 22 1007.8 1005.6 0.0
25/03:30pm 19.2 13.0 6.0 42 6.8 NW 28 35 15 19 1007.9 1005.7 0.0
25/03:00pm 20.2 14.5 6.5 41 7.1 NNW 26 35 14 19 1007.8 1005.6 0.0
25/02:30pm 19.7 13.0 5.4 39 7.3 NNW 30 44 16 24 1007.9 1005.7 0.0
25/02:00pm 20.0 12.7 5.3 38 7.5 NW 33 44 18 24 1008.0 1005.8 0.0
25/01:30pm 20.1 13.0 5.7 39 7.4 NW 32 46 17 25 1008.1 1005.9 0.0
25/01:00pm 19.2 12.7 6.3 43 6.7 NNW 30 43 16 23 1008.4 1006.2 0.0
25/12:30pm 19.8 12.7 6.2 41 7.0 NNW 33 44 18 24 1008.8 1006.6 0.0
25/12:00pm 20.0 14.3 6.7 42 6.9 NW 26 37 14 20 1009.4 1007.2 0.0
25/11:30am 19.8 14.1 6.9 43 6.7 NNW 26 39 14 21 1009.8 1007.6 0.0
25/11:00am 19.3 13.9 8.0 48 6.0 NW 26 33 14 18 1010.2 1008.0 0.0

Other Formats:

Comma delimited format used in spreadsheet applications
http://www.bom.gov.au/fwo/IDN60801/IDN60801.95728.axf

JavaScript Object Notation format (JSON) in row-major order
http://www.bom.gov.au/fwo/IDN60801/IDN60801.95728.json